createdAt,value
2022-11-08T00:01:39.390Z,8.93
2022-11-08T00:04:10.898Z,9.80
2022-11-08T00:07:04.218Z,9.40
2022-11-08T00:09:50.037Z,10.18
2022-11-08T00:12:42.214Z,9.77
2022-11-08T00:15:10.200Z,8.88
2022-11-08T00:17:37.397Z,9.38
2022-11-08T00:20:12.214Z,7.97
2022-11-08T00:22:39.443Z,9.38
2022-11-08T00:25:06.883Z,9.80
2022-11-08T00:27:40.430Z,9.88
2022-11-08T00:30:07.821Z,9.15
2022-11-08T00:32:41.467Z,9.30
2022-11-08T00:35:08.830Z,9.13
2022-11-08T00:37:35.924Z,9.80
2022-11-08T00:40:09.345Z,9.20
2022-11-08T00:42:36.608Z,10.18
2022-11-08T00:45:03.827Z,9.50
2022-11-08T00:47:37.210Z,10.35
2022-11-08T00:50:04.542Z,9.45
2022-11-08T00:52:38.094Z,9.55
2022-11-08T00:55:05.588Z,9.40
2022-11-08T00:57:58.024Z,9.95
2022-11-08T01:00:26.570Z,10.40
2022-11-08T01:03:20.100Z,10.32
2022-11-08T01:05:51.297Z,10.20
2022-11-08T01:08:25.251Z,11.07
2022-11-08T01:10:53.136Z,10.30
2022-11-08T01:13:20.270Z,9.57
2022-11-08T01:15:54.168Z,10.13
2022-11-08T01:18:28.305Z,8.40
2022-11-08T01:21:09.265Z,9.55
2022-11-08T01:23:36.619Z,9.40
2022-11-08T01:26:05.743Z,9.20
2022-11-08T01:28:40.235Z,9.05
2022-11-08T01:31:09.182Z,10.10
2022-11-08T01:33:48.452Z,9.88
2022-11-08T01:36:19.234Z,7.75
2022-11-08T01:38:55.136Z,7.88
2022-11-08T01:41:22.901Z,7.30
2022-11-08T01:43:51.814Z,8.07
2022-11-08T01:46:25.533Z,7.60
2022-11-08T01:48:55.753Z,6.85
2022-11-08T01:51:33.225Z,6.90
2022-11-08T01:54:04.562Z,7.07
2022-11-08T01:56:31.864Z,7.65
2022-11-08T01:59:06.421Z,7.20
2022-11-08T02:01:33.794Z,7.13
2022-11-08T02:04:07.361Z,6.82
2022-11-08T02:06:35.784Z,7.50
2022-11-08T02:09:04.486Z,6.78
2022-11-08T02:11:38.297Z,8.13
2022-11-08T02:14:05.678Z,6.57
2022-11-08T02:16:39.356Z,7.65
2022-11-08T02:19:16.205Z,7.90
2022-11-08T02:21:59.793Z,6.38
2022-11-08T02:24:26.997Z,6.53
2022-11-08T02:26:55.927Z,8.20
2022-11-08T02:29:31.329Z,6.78
2022-11-08T02:31:58.930Z,8.23
2022-11-08T02:37:00.300Z,5.68
2022-11-08T02:39:28.792Z,6.47
2022-11-08T02:42:02.244Z,6.88
2022-11-08T02:44:29.498Z,6.43
2022-11-08T02:46:56.695Z,7.25
2022-11-08T02:49:30.199Z,7.63
2022-11-08T02:51:57.424Z,7.07
2022-11-08T02:54:24.537Z,7.40
2022-11-08T02:56:58.330Z,7.68
2022-11-08T02:59:25.534Z,9.18
2022-11-08T03:01:59.557Z,9.00
2022-11-08T03:04:26.917Z,8.23
2022-11-08T03:06:54.196Z,7.22
2022-11-08T03:09:28.289Z,8.60
2022-11-08T03:11:55.574Z,10.60
2022-11-08T03:14:29.284Z,9.90
2022-11-08T03:16:56.500Z,9.00
2022-11-08T03:19:37.445Z,10.48
2022-11-08T03:22:04.727Z,10.80
2022-11-08T03:24:31.845Z,11.30
2022-11-08T03:27:05.465Z,13.85
2022-11-08T03:29:32.730Z,12.75
2022-11-08T03:31:59.974Z,14.10
2022-11-08T03:34:33.405Z,14.18
2022-11-08T03:37:00.626Z,16.88
2022-11-08T03:39:27.765Z,13.73
2022-11-08T03:42:01.237Z,15.27
2022-11-08T03:44:28.408Z,16.33
2022-11-08T03:47:02.476Z,17.40
2022-11-08T03:49:29.673Z,16.00
2022-11-08T03:51:56.789Z,16.23
2022-11-08T03:54:30.256Z,17.00
2022-11-08T03:56:57.471Z,15.68
2022-11-08T03:59:31.251Z,19.45
2022-11-08T04:01:58.510Z,17.83
2022-11-08T04:04:25.698Z,16.50
2022-11-08T04:06:59.234Z,18.80
2022-11-08T04:09:26.570Z,18.90
2022-11-08T04:12:25.265Z,17.55
2022-11-08T04:15:17.645Z,17.88
2022-11-08T04:18:11.484Z,15.85
2022-11-08T04:21:04.878Z,16.20
2022-11-08T04:23:39.391Z,18.13
2022-11-08T04:26:08.113Z,17.17
2022-11-08T04:28:36.964Z,16.05
2022-11-08T04:31:15.418Z,14.27
2022-11-08T04:33:42.737Z,16.98
2022-11-08T04:36:11.422Z,14.15
2022-11-08T04:38:45.246Z,15.68
2022-11-08T04:41:27.317Z,16.38
2022-11-08T04:44:04.488Z,16.42
2022-11-08T04:46:38.291Z,15.95
2022-11-08T04:49:05.589Z,15.38
2022-11-08T04:51:33.644Z,16.17
2022-11-08T04:54:08.267Z,15.95
2022-11-08T04:56:35.470Z,13.77
2022-11-08T04:59:11.869Z,13.45
2022-11-08T05:01:39.653Z,16.05
2022-11-08T05:06:40.568Z,15.05
2022-11-08T05:09:07.826Z,14.77
2022-11-08T05:11:41.583Z,16.02
2022-11-08T05:14:08.828Z,16.15
2022-11-08T05:16:35.931Z,18.40
2022-11-08T05:19:13.068Z,17.65
2022-11-08T05:22:06.211Z,19.02
2022-11-08T05:24:40.464Z,18.30
2022-11-08T05:27:07.652Z,19.73
2022-11-08T05:29:38.555Z,22.08
2022-11-08T05:32:15.293Z,19.67
2022-11-08T05:34:42.395Z,18.10
2022-11-08T05:37:16.403Z,18.67
2022-11-08T05:39:43.492Z,16.02
2022-11-08T05:42:10.877Z,21.05
2022-11-08T05:44:44.322Z,19.48
2022-11-08T05:47:11.878Z,18.65
2022-11-08T05:49:45.394Z,18.98
2022-11-08T05:52:12.673Z,20.42
2022-11-08T05:54:39.874Z,21.02
2022-11-08T05:57:13.418Z,19.58
2022-11-08T05:59:40.829Z,19.98
2022-11-08T06:04:41.447Z,17.13
2022-11-08T06:07:08.692Z,17.98
2022-11-08T06:09:35.788Z,19.85
2022-11-08T06:12:09.453Z,17.65
2022-11-08T06:14:36.639Z,17.85
2022-11-08T06:17:03.842Z,19.45
2022-11-08T06:19:37.352Z,19.65
2022-11-08T06:22:11.257Z,18.88
2022-11-08T06:24:45.555Z,19.65
2022-11-08T06:27:14.514Z,19.73
2022-11-08T06:29:42.508Z,18.42
2022-11-08T06:32:19.548Z,18.90
2022-11-08T06:34:47.313Z,18.20
2022-11-08T06:37:14.435Z,19.02
2022-11-08T06:39:48.399Z,21.08
2022-11-08T06:42:15.583Z,19.75
2022-11-08T06:44:49.349Z,23.00
2022-11-08T06:47:16.509Z,20.27
2022-11-08T06:49:43.660Z,21.15
2022-11-08T06:52:17.382Z,18.33
2022-11-08T06:54:44.709Z,18.45
2022-11-08T06:57:18.337Z,18.65
2022-11-08T06:59:45.617Z,19.52
2022-11-08T07:02:12.884Z,19.30
2022-11-08T07:04:46.411Z,19.05
2022-11-08T07:07:13.688Z,17.60
2022-11-08T07:09:40.848Z,18.55
2022-11-08T07:12:14.351Z,17.65
2022-11-08T07:14:41.699Z,19.50
2022-11-08T07:17:08.815Z,19.05
2022-11-08T07:19:42.334Z,17.63
2022-11-08T07:22:16.246Z,13.98
2022-11-08T07:24:50.366Z,15.48
2022-11-08T07:27:17.657Z,16.30
2022-11-08T07:29:44.764Z,15.77
2022-11-08T07:32:18.497Z,16.15
2022-11-08T07:34:45.765Z,17.70
2022-11-08T07:37:12.858Z,14.25
2022-11-08T07:39:50.279Z,16.02
2022-11-08T07:42:17.449Z,15.82
2022-11-08T07:44:55.411Z,13.32
2022-11-08T07:47:22.586Z,12.52
2022-11-08T07:49:49.677Z,14.75
2022-11-08T07:52:23.314Z,12.95
2022-11-08T07:54:57.229Z,13.77
2022-11-08T07:57:31.559Z,12.57
2022-11-08T08:00:07.843Z,12.68
2022-11-08T08:02:41.629Z,11.93
2022-11-08T08:05:09.089Z,12.68
2022-11-08T08:07:43.385Z,11.38
2022-11-08T08:10:10.770Z,13.90
2022-11-08T08:12:37.886Z,13.73
2022-11-08T08:15:11.344Z,11.57
2022-11-08T08:17:38.559Z,14.45
2022-11-08T08:20:19.489Z,10.77
2022-11-08T08:22:48.664Z,13.40
2022-11-08T08:25:16.497Z,10.45
2022-11-08T08:27:57.361Z,10.95
2022-11-08T08:30:25.167Z,10.57
2022-11-08T08:33:14.624Z,10.85
2022-11-08T08:35:46.334Z,11.07
2022-11-08T08:38:13.998Z,11.00
2022-11-08T08:40:41.598Z,10.98
2022-11-08T08:45:43.637Z,10.77
2022-11-08T08:48:17.508Z,11.18
2022-11-08T08:50:44.673Z,12.60
2022-11-08T08:53:11.824Z,11.70
2022-11-08T08:55:46.338Z,11.50
2022-11-08T08:58:13.506Z,11.77
2022-11-08T09:03:37.009Z,9.70
2022-11-08T09:06:11.438Z,10.70
2022-11-08T09:08:38.619Z,9.80
2022-11-08T09:11:05.922Z,9.43
2022-11-08T09:13:39.538Z,10.25
2022-11-08T09:16:07.997Z,9.85
2022-11-08T09:18:35.250Z,8.18
2022-11-08T09:21:11.373Z,9.23
2022-11-08T09:23:38.722Z,8.20
2022-11-08T09:26:13.582Z,8.68
2022-11-08T09:28:40.761Z,9.60
2022-11-08T09:31:09.330Z,8.18
2022-11-08T09:33:43.471Z,8.57
2022-11-08T09:36:13.314Z,8.00
2022-11-08T09:38:42.031Z,8.07
2022-11-08T09:41:35.406Z,7.80
2022-11-08T09:44:08.669Z,7.50
2022-11-08T09:47:00.466Z,6.85
2022-11-08T09:49:33.876Z,7.72
2022-11-08T09:52:08.436Z,5.88
2022-11-08T09:54:42.685Z,6.78
2022-11-08T09:57:23.444Z,4.65
2022-11-08T09:59:56.466Z,5.22
2022-11-08T10:02:30.393Z,4.60
2022-11-08T10:04:59.286Z,4.13
2022-11-08T10:07:36.582Z,4.00
2022-11-08T10:10:19.053Z,3.87
2022-11-08T10:13:11.396Z,4.20
2022-11-08T10:15:43.787Z,2.83
2022-11-08T10:18:20.673Z,3.30
2022-11-08T10:21:12.968Z,3.58
2022-11-08T10:23:46.537Z,3.00
2022-11-08T10:26:16.307Z,3.45
2022-11-08T10:28:57.474Z,3.20
2022-11-08T10:31:24.562Z,3.33
2022-11-08T10:33:53.012Z,3.10
2022-11-08T10:36:32.355Z,3.05
2022-11-08T10:39:11.235Z,3.65
2022-11-08T10:41:45.516Z,3.28
2022-11-08T10:44:15.420Z,4.00
2022-11-08T10:46:53.384Z,4.43
2022-11-08T10:49:21.662Z,5.55
2022-11-08T10:52:28.467Z,5.20
2022-11-08T10:54:56.503Z,5.93
2022-11-08T10:57:36.441Z,6.90
2022-11-08T11:00:17.415Z,7.80
2022-11-08T11:02:52.376Z,7.78
2022-11-08T11:05:19.571Z,8.18
2022-11-08T11:07:59.027Z,9.70
2022-11-08T11:10:29.623Z,10.10
2022-11-08T11:13:16.581Z,11.32
2022-11-08T11:15:46.654Z,11.07
2022-11-08T11:18:29.553Z,11.88
2022-11-08T11:21:07.434Z,12.25
2022-11-08T11:23:57.366Z,12.73
2022-11-08T11:26:28.588Z,11.18
2022-11-08T11:29:25.376Z,12.65
2022-11-08T11:31:53.399Z,12.77
2022-11-08T11:34:27.449Z,15.30
2022-11-08T11:36:57.937Z,13.07
2022-11-08T11:39:25.257Z,12.82
2022-11-08T11:42:43.881Z,12.52
2022-11-08T11:45:07.622Z,12.52
2022-11-08T11:47:46.418Z,13.73
2022-11-08T11:50:40.470Z,13.13
2022-11-08T11:53:13.021Z,12.48
2022-11-08T11:56:06.332Z,12.48
2022-11-08T11:58:44.328Z,13.80
2022-11-08T12:01:24.310Z,12.32
2022-11-08T12:04:00.532Z,12.55
2022-11-08T12:06:43.440Z,14.15
2022-11-08T12:09:22.702Z,11.35
2022-11-08T12:11:59.326Z,11.95
2022-11-08T12:14:33.089Z,12.38
2022-11-08T12:17:42.346Z,13.80
2022-11-08T12:20:29.461Z,12.73
2022-11-08T12:23:21.328Z,13.23
2022-11-08T12:25:54.495Z,12.85
2022-11-08T12:28:37.399Z,11.95
2022-11-08T12:31:22.707Z,12.10
2022-11-08T12:34:15.318Z,12.18
2022-11-08T12:37:12.074Z,12.07
2022-11-08T12:39:51.326Z,13.18
2022-11-08T12:42:34.878Z,10.73
2022-11-08T12:45:08.337Z,11.82
2022-11-08T12:47:39.148Z,12.30
2022-11-08T12:50:18.333Z,12.50
2022-11-08T12:52:55.326Z,11.45
2022-11-08T12:55:37.331Z,12.60
2022-11-08T12:58:18.586Z,11.73
2022-11-08T13:00:56.374Z,13.65
2022-11-08T13:03:26.763Z,12.30
2022-11-08T13:06:21.386Z,10.77
2022-11-08T13:09:07.013Z,11.85
2022-11-08T13:11:51.352Z,10.35
2022-11-08T13:14:19.778Z,10.68
2022-11-08T13:17:13.351Z,11.88
2022-11-08T13:19:47.368Z,11.40
2022-11-08T13:22:36.345Z,11.10
2022-11-08T13:25:06.770Z,10.82
2022-11-08T13:27:50.334Z,10.93
2022-11-08T13:30:17.541Z,11.07
2022-11-08T13:32:54.311Z,11.80
2022-11-08T13:35:38.284Z,10.80
2022-11-08T13:38:26.347Z,10.60
2022-11-08T13:40:56.217Z,9.82
2022-11-08T13:43:32.371Z,11.73
2022-11-08T13:46:18.176Z,10.65
2022-11-08T13:49:10.386Z,10.25
2022-11-08T13:51:38.654Z,11.07
2022-11-08T13:54:38.356Z,11.57
2022-11-08T13:57:17.533Z,9.60
2022-11-08T13:59:51.348Z,10.75
2022-11-08T14:02:25.057Z,10.35
2022-11-08T14:05:00.505Z,11.02
2022-11-08T14:07:40.529Z,10.20
2022-11-08T14:10:23.385Z,11.13
2022-11-08T14:12:53.999Z,10.30
2022-11-08T14:15:30.399Z,10.02
2022-11-08T14:17:57.562Z,9.75
2022-11-08T14:20:38.504Z,8.90
2022-11-08T14:23:22.455Z,9.23
2022-11-08T14:25:59.361Z,9.43
2022-11-08T14:28:33.512Z,9.48
2022-11-08T14:31:01.492Z,10.20
2022-11-08T14:33:36.490Z,9.10
2022-11-08T14:36:04.855Z,9.25
2022-11-08T14:38:40.560Z,8.90
2022-11-08T14:41:07.955Z,8.98
2022-11-08T14:43:48.455Z,9.80
2022-11-08T14:46:21.239Z,8.57
2022-11-08T14:49:00.576Z,8.80
2022-11-08T14:51:34.311Z,8.88
2022-11-08T14:54:08.715Z,9.43
2022-11-08T14:56:39.152Z,9.65
2022-11-08T14:59:07.987Z,8.73
2022-11-08T15:01:42.718Z,9.95
2022-11-08T15:04:21.374Z,9.63
2022-11-08T15:06:59.630Z,9.60
2022-11-08T15:09:41.521Z,9.57
2022-11-08T15:12:20.581Z,8.75
2022-11-08T15:15:05.607Z,10.68
2022-11-08T15:17:34.329Z,9.93
2022-11-08T15:20:20.523Z,9.15
2022-11-08T15:23:00.584Z,10.25
2022-11-08T15:25:34.389Z,10.10
2022-11-08T15:28:40.541Z,11.15
2022-11-08T15:31:20.404Z,10.05
2022-11-08T15:33:48.132Z,10.68
2022-11-08T15:36:16.189Z,11.02
2022-11-08T15:38:50.533Z,10.82
2022-11-08T15:41:39.391Z,11.88
2022-11-08T15:46:44.449Z,10.23
2022-11-08T15:49:25.266Z,11.40
2022-11-08T15:52:00.683Z,11.10
2022-11-08T15:54:28.118Z,11.80
2022-11-08T15:56:56.248Z,11.63
2022-11-08T15:59:31.500Z,11.43
2022-11-08T16:01:59.757Z,12.00
2022-11-08T16:04:35.489Z,12.25
2022-11-08T16:07:02.785Z,12.55
2022-11-08T16:09:36.585Z,12.38
2022-11-08T16:12:04.243Z,12.20
2022-11-08T16:14:38.598Z,13.60
2022-11-08T16:17:06.853Z,13.07
2022-11-08T16:19:40.559Z,13.02
2022-11-08T16:22:18.198Z,14.23
2022-11-08T16:24:52.494Z,13.25
2022-11-08T16:27:19.674Z,13.48
2022-11-08T16:29:53.549Z,14.23
2022-11-08T16:32:20.772Z,13.93
2022-11-08T16:34:55.085Z,13.68
2022-11-08T16:37:22.266Z,14.43
2022-11-08T16:39:55.663Z,14.18
2022-11-08T16:42:22.803Z,14.65
2022-11-08T16:44:56.670Z,13.55
2022-11-08T16:47:23.846Z,12.27
2022-11-08T16:49:51.635Z,11.95
2022-11-08T16:52:25.580Z,13.27
2022-11-08T16:54:52.826Z,14.23
2022-11-08T16:57:34.827Z,16.83
2022-11-08T17:00:02.587Z,13.93
2022-11-08T17:02:37.651Z,13.35
2022-11-08T17:05:11.439Z,14.70
2022-11-08T17:07:45.569Z,12.05
2022-11-08T17:10:30.420Z,21.27
2022-11-08T17:13:04.551Z,14.23
2022-11-08T17:15:31.983Z,12.20
2022-11-08T17:17:59.613Z,12.80
2022-11-08T17:23:14.424Z,10.75
2022-11-08T17:25:50.594Z,11.30
2022-11-08T17:28:24.417Z,10.85
2022-11-08T17:30:58.599Z,10.57
2022-11-08T17:33:32.592Z,10.90
2022-11-08T17:36:04.161Z,30.65
2022-11-08T17:38:31.436Z,13.48
2022-11-08T17:41:15.553Z,12.80
2022-11-08T17:43:43.223Z,13.23
2022-11-08T17:46:17.742Z,12.25
2022-11-08T17:48:44.916Z,10.85
2022-11-08T17:51:15.156Z,10.85
2022-11-08T17:53:50.582Z,10.30
2022-11-08T17:56:17.801Z,10.07
2022-11-08T17:58:44.937Z,9.80
2022-11-08T18:01:18.673Z,10.48
2022-11-08T18:03:46.021Z,9.98
2022-11-08T18:06:20.717Z,9.77
2022-11-08T18:08:47.923Z,9.80
2022-11-08T18:11:15.139Z,9.32
2022-11-08T18:13:49.518Z,10.38
2022-11-08T18:16:18.390Z,8.52
2022-11-08T18:18:53.549Z,8.75
2022-11-08T18:21:27.713Z,14.63
2022-11-08T18:24:01.670Z,8.32
2022-11-08T18:26:28.926Z,8.50
2022-11-08T18:28:57.046Z,8.55
2022-11-08T18:31:31.742Z,9.30
2022-11-08T18:33:59.029Z,7.10
2022-11-08T18:36:33.669Z,7.32
2022-11-08T18:39:01.348Z,6.65
2022-11-08T18:41:30.051Z,6.65
2022-11-08T18:44:04.606Z,7.40
2022-11-08T18:46:41.886Z,6.00
2022-11-08T18:49:17.591Z,7.22
2022-11-08T18:51:44.933Z,6.20
2022-11-08T18:54:12.104Z,7.25
2022-11-08T18:56:45.747Z,6.15
2022-11-08T18:59:13.219Z,9.00
2022-11-08T19:01:40.898Z,26.30
2022-11-08T19:04:14.644Z,9.95
2022-11-08T19:06:41.930Z,6.90
2022-11-08T19:09:09.046Z,6.90
2022-11-08T19:11:43.540Z,7.55
2022-11-08T19:14:10.723Z,6.93
2022-11-08T19:16:44.603Z,7.00
2022-11-08T19:19:11.949Z,7.05
2022-11-08T19:21:52.799Z,7.53
2022-11-08T19:24:20.117Z,7.28
2022-11-08T19:26:47.327Z,7.22
2022-11-08T19:29:20.568Z,8.10
2022-11-08T19:31:48.204Z,7.93
2022-11-08T19:34:21.676Z,7.05
2022-11-08T19:36:55.497Z,8.27
2022-11-08T19:39:30.618Z,8.15
2022-11-08T19:41:57.800Z,8.40
2022-11-08T19:44:25.550Z,7.75
2022-11-08T19:46:59.578Z,7.70
2022-11-08T19:49:28.820Z,7.35
2022-11-08T19:52:02.701Z,7.78
2022-11-08T19:54:29.995Z,8.05
2022-11-08T19:57:05.934Z,7.20
2022-11-08T19:59:40.718Z,8.65
2022-11-08T20:02:07.885Z,8.60
2022-11-08T20:04:35.215Z,8.15
2022-11-08T20:07:08.628Z,7.63
2022-11-08T20:09:35.867Z,7.22
2022-11-08T20:12:05.644Z,8.85
2022-11-08T20:14:39.741Z,8.60
2022-11-08T20:17:06.997Z,8.18
2022-11-08T20:19:40.755Z,8.27
2022-11-08T20:22:14.503Z,9.43
2022-11-08T20:24:48.630Z,8.23
2022-11-08T20:27:16.930Z,8.68
2022-11-08T20:29:44.074Z,9.40
2022-11-08T20:32:17.680Z,8.85
2022-11-08T20:34:46.083Z,8.80
2022-11-08T20:37:14.641Z,9.45
2022-11-08T20:39:48.742Z,10.38
2022-11-08T20:42:19.323Z,9.80
2022-11-08T20:44:53.606Z,10.30
2022-11-08T20:47:21.117Z,10.50
2022-11-08T20:49:54.615Z,9.00
2022-11-08T20:52:36.567Z,10.30
2022-11-08T20:55:17.639Z,9.77
2022-11-08T20:57:44.852Z,10.10
2022-11-08T21:00:13.811Z,10.38
2022-11-08T21:02:48.581Z,11.38
2022-11-08T21:05:22.525Z,14.23
2022-11-08T21:10:44.874Z,11.23
2022-11-08T21:13:12.474Z,12.38
2022-11-08T21:15:39.661Z,12.95
2022-11-08T21:18:13.751Z,11.50
2022-11-08T21:20:47.587Z,11.20
2022-11-08T21:23:21.577Z,11.48
2022-11-08T21:25:57.510Z,12.38
2022-11-08T21:28:31.687Z,13.02
2022-11-08T21:31:05.535Z,14.52
2022-11-08T21:33:39.834Z,12.90
2022-11-08T21:36:07.324Z,11.52
2022-11-08T21:38:38.580Z,11.48
2022-11-08T21:41:13.665Z,11.77
2022-11-08T21:43:45.321Z,12.75
2022-11-08T21:46:20.736Z,12.88
2022-11-08T21:48:48.272Z,11.52
2022-11-08T21:53:54.464Z,12.20
2022-11-08T21:56:26.850Z,10.48
2022-11-08T21:59:00.593Z,11.55
2022-11-08T22:01:30.614Z,12.27
2022-11-08T22:04:05.801Z,11.38
2022-11-08T22:06:33.043Z,12.32
2022-11-08T22:09:06.685Z,10.82
2022-11-08T22:11:35.442Z,12.43
2022-11-08T22:14:02.554Z,11.30
2022-11-08T22:16:36.738Z,11.15
2022-11-08T22:19:05.647Z,10.52
2022-11-08T22:21:53.598Z,10.60
2022-11-08T22:24:21.887Z,12.25
2022-11-08T22:26:56.771Z,11.45
2022-11-08T22:29:23.980Z,12.27
2022-11-08T22:31:52.094Z,10.35
2022-11-08T22:34:26.718Z,10.77
2022-11-08T22:36:53.869Z,9.77
2022-11-08T22:39:21.962Z,11.32
2022-11-08T22:41:57.617Z,10.23
2022-11-08T22:44:24.824Z,10.32
2022-11-08T22:46:58.742Z,10.43
2022-11-08T22:49:25.908Z,9.98
2022-11-08T22:51:53.071Z,10.13
2022-11-08T22:54:26.600Z,9.95
2022-11-08T22:56:53.789Z,9.57
2022-11-08T22:59:27.690Z,9.68
2022-11-08T23:01:55.101Z,9.73
2022-11-08T23:04:22.195Z,9.95
2022-11-08T23:06:55.761Z,10.55
2022-11-08T23:09:23.043Z,8.65
2022-11-08T23:12:15.639Z,9.63
2022-11-08T23:15:01.462Z,8.70
2022-11-08T23:17:35.680Z,9.68
2022-11-08T23:20:21.965Z,9.40
2022-11-08T23:23:20.968Z,10.50
2022-11-08T23:25:48.257Z,8.80
2022-11-08T23:28:40.651Z,9.82
2022-11-08T23:31:30.249Z,8.77
2022-11-08T23:34:03.739Z,9.45
2022-11-08T23:36:31.402Z,7.82
2022-11-08T23:38:58.878Z,8.98
2022-11-08T23:41:51.627Z,9.20
2022-11-08T23:44:24.798Z,8.63
2022-11-08T23:47:02.688Z,10.02
2022-11-08T23:49:30.150Z,8.95
2022-11-08T23:52:03.777Z,9.00
2022-11-08T23:54:31.005Z,8.73
2022-11-08T23:56:58.122Z,8.43
2022-11-08T23:59:31.751Z,8.30
